Ayrshire, Iowa
Current Conditions -  °F | °C
As of 10:53 AM on Friday 31 Oct 2014 (Local Time) from KSPW Reporting Station
Clear Clear  
Wind Chill: 22°   Ceiling: Unl
Heat Index: 32°   Visibility: 10mi
Dew Point: 19°   Wind: 15mph
Humidity: 59%   Direction: 20°NNE
Pressure: 30.57"   Gusts: 22mph
Location:  43.04°N, 94.83°W
Report Text: KSPW 311553Z AUTO 02013G19KT 10SM CLR 00/M07 A3057 RMK AO2 SLP367 T00001072 TSNO
Loading
Personal Weather Stations






























Interactive Weather Map
Tropical Storm Tracking
New forecast layout! Learn more

10-Day Weather Forecast

Advertisements
Track Severe Weather on mobile